Lubbock Preston Smith International Airport
KLBB : now visible

Airfield :











YOU CAN JOIN US ON...

 
LOGIN :

Register | Disclaimer

   EN    FR    IT 

 









Legend :    VFR   Marginal VFR   IFR   Intensive IFR   Very Intensive IFR
Visi :
Ceiling :
>= 8 km
>= 3000ft
5 to 8 km
1000 to 3000 ft
1500m to 5 km
500 to 1000 ft
800 to 1500m
200 to 500 ft
< 800m
< 200 ft
Symbols :   Thunderstorms  Fog  Heavy snow  Heavy precipitations  Wind > 20 kt






- Airport Elevation : 3282 ft
- IATA code : LBB


KLBB - Lubbock Preston Smith International

CURRENT METAR :
  • 272253Z 01011KT 2SM -FZDZ BR BKN005 OVC007 M02/M03 A3009 RMK AO2 SLP206 P0000 I1002 T10221033

EXPIRED METARs :
  • 272212Z 02014KT 2 1/2SM -FZDZ BR BKN005 OVC007 M02/M04 A3007 RMK AO2 P0000 I1000 T10221039
  • 272153Z 01013KT 3SM -FZDZ BR OVC005 M02/M04 A3008 RMK AO2 SLP203 P0000 I1001 T10221039

TAF KLBB
Valid from the 28 at 00:00 until the 29 at 00:00 UTC


272327Z 2800/2824 02016KT 3SM -FZDZ BR BKN004 OVC007
FM280100 01011KT 2SM -FZRAPLSN OVC003
FM280700 02011KT 4SM -SN OVC003
FM281500 36008KT P6SM OVC009
FM281900 31011KT P6SM OVC015
KZFW FIR / North America



MET'MAP, your aeronautical weather chart ! - Copyright ORBIFLY December 2007 - Disclaimer

ORBIFLY MET'MAP TEAM :

Programming & Development : Alexandra Zaïnal
Concept & original design : Baudouin d'Aumeries
Assistance for programming : Marc-Olivier Méhu
Technical & hardware support : Manuel Goepfert

Contact : metmap@orbifly.com




SOURCES & CREDITS :

   NOAA       Earth
Advisory